Time;durP1;ratioP1;P1;durP2;ratioP2;P2;SDS_P1;SDS_P2;PMS_P1;PMS_P2;Temp;Humidity;BMP_temperature;BMP_pressure;BME280_temperature;BME280_humidity;BME280_pressure;Samples;Min_cycle;Max_cycle;Signal;HPM_P1;HPM_P2
2021/07/28 00:01:05;;;;;;;;;6.00;6.00;;;;;;;;5079720;27;46269;-75
2021/07/28 00:03:30;;;;;;;;;6.00;6.00;;;;;;;;5079232;27;45477;-75
2021/07/28 00:05:56;;;;;;;;;7.75;6.25;;;;;;;;5075877;27;45357;-76
2021/07/28 00:08:21;;;;;;;;;9.00;6.75;;;;;;;;5081168;27;45283;-76
2021/07/28 00:10:46;;;;;;;;;5.00;5.00;;;;;;;;5079262;27;45955;-75
2021/07/28 00:13:11;;;;;;;;;7.00;6.50;;;;;;;;5079519;27;45493;-76
2021/07/28 00:15:37;;;;;;;;;6.25;6.25;;;;;;;;5078509;27;45440;-75
2021/07/28 00:18:11;;;;;;;;;9.00;7.75;;;;;;;;5074025;27;45315;-75
2021/07/28 00:23:14;;;;;;;;;4.25;4.00;;;;;;;;5079864;27;45461;-75
2021/07/28 00:25:40;;;;;;;;;6.00;6.00;;;;;;;;5079211;27;45792;-73
2021/07/28 00:28:05;;;;;;;;;7.00;7.00;;;;;;;;5079559;27;45517;-76
2021/07/28 00:30:31;;;;;;;;;6.50;5.00;;;;;;;;5078971;27;47027;-77
2021/07/28 00:32:56;;;;;;;;;7.25;6.25;;;;;;;;5075297;27;45498;-77
2021/07/28 00:35:21;;;;;;;;;4.00;4.00;;;;;;;;5080280;27;45525;-73
2021/07/28 00:37:46;;;;;;;;;4.00;4.00;;;;;;;;5079463;27;45322;-77
2021/07/28 00:40:13;;;;;;;;;6.00;6.00;;;;;;;;5078780;27;47034;-77
2021/07/28 00:42:38;;;;;;;;;4.00;4.00;;;;;;;;5079218;27;45536;-77
2021/07/28 00:45:03;;;;;;;;;5.75;5.25;;;;;;;;5074742;27;45434;-77
2021/07/28 00:47:29;;;;;;;;;3.25;3.00;;;;;;;;5080863;27;45374;-77
2021/07/28 00:49:54;;;;;;;;;5.50;4.50;;;;;;;;5079105;27;46166;-76
2021/07/28 00:52:19;;;;;;;;;4.25;4.00;;;;;;;;5078926;27;45424;-76
2021/07/28 00:54:44;;;;;;;;;5.25;5.25;;;;;;;;5077361;27;45355;-76
2021/07/28 00:57:10;;;;;;;;;5.00;5.00;;;;;;;;5074332;27;45484;-77
2021/07/28 00:59:35;;;;;;;;;5.25;5.25;;;;;;;;5079110;27;45381;-73
2021/07/28 01:02:00;;;;;;;;;4.75;4.75;;;;;;;;5079432;27;45376;-76
2021/07/28 01:04:26;;;;;;;;;5.75;5.75;;;;;;;;5078806;27;45368;-77
2021/07/28 01:06:51;;;;;;;;;4.00;4.00;;;;;;;;5078869;27;45334;-77
2021/07/28 01:09:16;;;;;;;;;5.00;4.75;;;;;;;;5076263;27;46539;-74
2021/07/28 01:11:41;;;;;;;;;4.75;3.25;;;;;;;;5077393;27;45322;-77
2021/07/28 01:14:07;;;;;;;;;6.00;3.75;;;;;;;;5080161;27;45282;-77
2021/07/28 01:16:37;;;;;;;;;4.25;4.25;;;;;;;;5078680;27;45396;-77
2021/07/28 01:19:12;;;;;;;;;5.50;3.50;;;;;;;;5077622;27;47171;-77
2021/07/28 01:21:37;;;;;;;;;3.00;3.00;;;;;;;;5078187;27;45450;-77
2021/07/28 01:24:04;;;;;;;;;3.75;3.75;;;;;;;;5074255;27;45374;-76
2021/07/28 01:26:29;;;;;;;;;4.75;4.75;;;;;;;;5080457;27;45556;-76
2021/07/28 01:28:55;;;;;;;;;5.75;4.00;;;;;;;;5078425;27;46872;-75
2021/07/28 01:31:22;;;;;;;;;4.75;4.75;;;;;;;;5078581;27;45432;-74
2021/07/28 01:33:48;;;;;;;;;4.00;3.00;;;;;;;;5077003;27;45605;-75
2021/07/28 01:36:17;;;;;;;;;3.50;3.50;;;;;;;;5073623;27;45835;-75
2021/07/28 01:38:42;;;;;;;;;5.75;4.00;;;;;;;;5076906;27;45354;-74
2021/07/28 01:41:07;;;;;;;;;3.25;2.75;;;;;;;;5079367;27;45381;-73
2021/07/28 01:43:33;;;;;;;;;3.00;3.00;;;;;;;;5078297;27;47097;-74
2021/07/28 01:45:59;;;;;;;;;3.00;3.00;;;;;;;;5078068;27;45537;-76
2021/07/28 01:48:25;;;;;;;;;5.00;4.75;;;;;;;;5076636;27;47024;-73
2021/07/28 01:50:50;;;;;;;;;4.00;4.00;;;;;;;;5074433;27;45424;-73
2021/07/28 01:53:15;;;;;;;;;3.25;3.25;;;;;;;;5080173;27;45404;-74
2021/07/28 01:55:41;;;;;;;;;4.00;3.00;;;;;;;;5077671;27;45467;-77
2021/07/28 01:58:06;;;;;;;;;3.00;3.00;;;;;;;;5078023;27;45395;-73
2021/07/28 02:00:32;;;;;;;;;3.00;3.00;;;;;;;;5077602;27;45790;-73
2021/07/28 02:03:02;;;;;;;;;3.00;2.00;;;;;;;;5073957;27;45345;-74
2021/07/28 02:05:31;;;;;;;;;4.00;4.00;;;;;;;;5087132;27;45438;-74
2021/07/28 02:08:01;;;;;;;;;4.00;3.00;;;;;;;;5076413;27;46161;-74
2021/07/28 02:10:27;;;;;;;;;4.75;4.75;;;;;;;;5077852;27;45617;-74
2021/07/28 02:12:52;;;;;;;;;4.50;4.50;;;;;;;;5076317;27;45528;-74
2021/07/28 02:15:17;;;;;;;;;5.00;3.25;;;;;;;;5074185;27;45360;-74
2021/07/28 02:17:42;;;;;;;;;2.00;2.00;;;;;;;;5076101;27;46293;-74
2021/07/28 02:20:08;;;;;;;;;4.00;3.00;;;;;;;;5078880;27;45416;-75
2021/07/28 02:22:33;;;;;;;;;4.50;2.50;;;;;;;;5077792;27;45693;-75
2021/07/28 02:24:58;;;;;;;;;4.25;3.25;;;;;;;;5077571;27;45482;-74
2021/07/28 02:27:24;;;;;;;;;5.00;4.25;;;;;;;;5076270;27;46253;-74
2021/07/28 02:29:49;;;;;;;;;7.25;3.00;;;;;;;;5075247;27;45702;-75
2021/07/28 02:32:14;;;;;;;;;4.50;3.00;;;;;;;;5083470;27;45385;-75
2021/07/28 02:34:39;;;;;;;;;2.25;2.25;;;;;;;;5080792;27;45436;-74
2021/07/28 02:37:05;;;;;;;;;5.00;4.50;;;;;;;;5081080;27;45517;-75
2021/07/28 02:39:30;;;;;;;;;2.75;2.75;;;;;;;;5080649;27;45520;-75
2021/07/28 02:41:55;;;;;;;;;2.00;2.00;;;;;;;;5077600;27;45318;-74
2021/07/28 02:44:20;;;;;;;;;4.00;2.25;;;;;;;;5083091;27;45340;-71
2021/07/28 02:46:45;;;;;;;;;6.25;3.25;;;;;;;;5080847;27;46207;-72
2021/07/28 02:49:11;;;;;;;;;2.00;2.00;;;;;;;;5080549;27;45472;-72
2021/07/28 02:51:36;;;;;;;;;2.75;2.75;;;;;;;;5079382;27;45491;-73
2021/07/28 02:54:01;;;;;;;;;4.00;3.00;;;;;;;;5074844;27;45497;-71
2021/07/28 02:56:26;;;;;;;;;2.00;2.00;;;;;;;;5082621;27;45461;-71
2021/07/28 02:58:52;;;;;;;;;2.00;2.00;;;;;;;;5080777;27;45341;-72
2021/07/28 03:01:17;;;;;;;;;3.00;2.00;;;;;;;;5080813;27;46234;-71
2021/07/28 03:03:42;;;;;;;;;4.33;3.00;;;;;;;;5080217;27;45386;-71
2021/07/28 03:06:07;;;;;;;;;2.25;2.25;;;;;;;;5077046;27;45389;-71
2021/07/28 03:08:32;;;;;;;;;3.00;3.00;;;;;;;;5081305;27;45366;-71
2021/07/28 03:10:59;;;;;;;;;4.25;4.00;;;;;;;;5080929;27;45520;-71
2021/07/28 03:13:24;;;;;;;;;2.25;2.25;;;;;;;;5080556;27;45429;-71
2021/07/28 03:15:50;;;;;;;;;3.25;3.25;;;;;;;;5080198;27;47057;-71
2021/07/28 03:18:15;;;;;;;;;2.25;2.25;;;;;;;;5077592;27;45572;-71
2021/07/28 03:20:42;;;;;;;;;6.00;3.00;;;;;;;;5079108;27;45373;-72
2021/07/28 03:23:07;;;;;;;;;2.67;2.00;;;;;;;;5081656;27;45416;-72
2021/07/28 03:25:32;;;;;;;;;3.00;2.00;;;;;;;;5078502;27;47178;-72
2021/07/28 03:27:58;;;;;;;;;5.75;2.50;;;;;;;;5080128;27;45452;-72
2021/07/28 03:30:23;;;;;;;;;6.00;3.50;;;;;;;;5077180;27;45414;-72
2021/07/28 03:32:48;;;;;;;;;2.67;1.00;;;;;;;;5077568;27;45420;-72
2021/07/28 03:35:13;;;;;;;;;3.50;3.50;;;;;;;;5080454;27;45524;-71
2021/07/28 03:37:38;;;;;;;;;2.50;2.50;;;;;;;;5080240;27;45424;-72
2021/07/28 03:40:04;;;;;;;;;5.75;4.00;;;;;;;;5080110;27;45506;-72
2021/07/28 03:42:30;;;;;;;;;4.75;2.50;;;;;;;;5077896;27;45405;-71
2021/07/28 03:44:59;;;;;;;;;3.50;2.25;;;;;;;;5075716;27;45376;-71
2021/07/28 03:47:24;;;;;;;;;2.75;2.75;;;;;;;;5081317;27;45309;-71
2021/07/28 03:49:50;;;;;;;;;3.75;3.75;;;;;;;;5079683;27;45639;-71
2021/07/28 03:52:15;;;;;;;;;5.00;3.00;;;;;;;;5079717;27;45488;-70
2021/07/28 03:54:40;;;;;;;;;5.25;3.00;;;;;;;;5079409;27;46200;-71
2021/07/28 03:57:06;;;;;;;;;3.50;3.00;;;;;;;;5075697;27;45366;-71
2021/07/28 03:59:31;;;;;;;;;5.75;3.75;;;;;;;;5081605;27;45255;-71
2021/07/28 04:01:56;;;;;;;;;2.25;2.25;;;;;;;;5078090;27;45291;-71
2021/07/28 04:04:21;;;;;;;;;3.50;2.50;;;;;;;;5079549;27;45338;-71
2021/07/28 04:06:46;;;;;;;;;3.25;2.75;;;;;;;;5079434;27;45416;-71
2021/07/28 04:09:12;;;;;;;;;3.25;2.00;;;;;;;;5075136;27;45384;-71
2021/07/28 04:11:37;;;;;;;;;4.00;4.00;;;;;;;;5078928;27;45419;-71
2021/07/28 04:14:02;;;;;;;;;2.50;1.75;;;;;;;;5077963;27;46124;-71
2021/07/28 04:16:27;;;;;;;;;3.75;3.00;;;;;;;;5078447;27;45323;-71
2021/07/28 04:18:52;;;;;;;;;3.75;2.25;;;;;;;;5079463;27;45517;-71
2021/07/28 04:21:18;;;;;;;;;5.25;3.75;;;;;;;;5077028;27;45456;-68
2021/07/28 04:23:43;;;;;;;;;7.00;4.75;;;;;;;;5077255;27;46311;-68
2021/07/28 04:26:08;;;;;;;;;3.00;3.00;;;;;;;;5080460;27;45417;-67
2021/07/28 04:28:33;;;;;;;;;4.00;2.25;;;;;;;;5079021;27;45451;-68
2021/07/28 04:30:59;;;;;;;;;4.00;2.75;;;;;;;;5078623;27;45392;-67
2021/07/28 04:33:24;;;;;;;;;2.50;2.00;;;;;;;;5077604;27;45382;-72
2021/07/28 04:35:49;;;;;;;;;5.50;3.50;;;;;;;;5075831;27;45612;-70
2021/07/28 04:38:14;;;;;;;;;3.00;1.50;;;;;;;;5080723;27;45307;-71
2021/07/28 04:40:39;;;;;;;;;4.00;2.00;;;;;;;;5078710;27;45476;-71
2021/07/28 04:43:05;;;;;;;;;3.00;3.00;;;;;;;;5078777;27;45351;-71
2021/07/28 04:45:30;;;;;;;;;1.75;1.75;;;;;;;;5077916;27;45363;-70
2021/07/28 04:47:55;;;;;;;;;2.25;2.00;;;;;;;;5074599;27;45433;-71
2021/07/28 04:50:20;;;;;;;;;5.25;3.00;;;;;;;;5079459;27;45336;-73
2021/07/28 04:52:45;;;;;;;;;4.00;1.50;;;;;;;;5076784;27;45576;-72
2021/07/28 04:55:11;;;;;;;;;4.25;2.75;;;;;;;;5078468;27;45408;-73
2021/07/28 04:57:36;;;;;;;;;4.00;3.00;;;;;;;;5078748;27;45441;-73
2021/07/28 05:00:02;;;;;;;;;1.75;1.75;;;;;;;;5073900;27;45392;-73
